createdAt,value
2022-10-23T00:01:16.128Z,100624.81
2022-10-23T00:03:44.491Z,100618.69
2022-10-23T00:06:14.532Z,100619.81
2022-10-23T00:08:42.972Z,100617.16
2022-10-23T00:11:13.143Z,100620.16
2022-10-23T00:13:41.899Z,100616.81
2022-10-23T00:16:10.604Z,100618.31
2022-10-23T00:18:39.654Z,100623.59
2022-10-23T00:21:08.801Z,100616.78
2022-10-23T00:23:38.158Z,100615.94
2022-10-23T00:26:11.009Z,100625.56
2022-10-23T00:28:39.036Z,100630.25
2022-10-23T00:31:07.164Z,100629.41
2022-10-23T00:33:37.464Z,100634.13
2022-10-23T00:36:07.255Z,100639.56
2022-10-23T00:38:35.880Z,100634.50
2022-10-23T00:41:05.638Z,100624.22
2022-10-23T00:43:35.036Z,100628.91
2022-10-23T00:46:02.842Z,100624.72
2022-10-23T00:48:30.791Z,100610.94
2022-10-23T00:50:58.623Z,100609.25
2022-10-23T00:53:26.434Z,100614.66
2022-10-23T00:55:57.566Z,100612.16
2022-10-23T00:58:26.814Z,100614.09
2022-10-23T01:00:56.524Z,100613.97
2022-10-23T01:03:28.758Z,100614.09
2022-10-23T01:06:10.486Z,100604.72
2022-10-23T01:08:48.088Z,100594.16
2022-10-23T01:11:21.566Z,100597.47
2022-10-23T01:16:40.637Z,100584.38
2022-10-23T01:19:18.393Z,100589.66
2022-10-23T01:21:55.973Z,100583.56
2022-10-23T01:24:47.149Z,100577.31
2022-10-23T01:27:23.699Z,100571.75
2022-10-23T01:30:03.266Z,100570.19
2022-10-23T01:32:43.975Z,100567.44
2022-10-23T01:35:17.637Z,100575.47
2022-10-23T01:37:54.822Z,100574.66
2022-10-23T01:40:27.447Z,100572.72
2022-10-23T01:43:07.738Z,100571.03
2022-10-23T01:45:42.079Z,100570.94
2022-10-23T01:48:19.276Z,100574.38
2022-10-23T01:50:48.110Z,100565.75
2022-10-23T01:53:16.106Z,100570.34
2022-10-23T01:55:45.785Z,100569.50
2022-10-23T01:58:22.697Z,100566.16
2022-10-23T02:00:52.876Z,100560.00
2022-10-23T02:03:21.753Z,100555.81
2022-10-23T02:05:50.034Z,100550.69
2022-10-23T02:08:18.063Z,100545.53
2022-10-23T02:10:55.826Z,100547.31
2022-10-23T02:13:30.845Z,100545.41
2022-10-23T02:16:05.765Z,100534.97
2022-10-23T02:18:41.123Z,100536.63
2022-10-23T02:21:13.154Z,100532.31
2022-10-23T02:23:46.190Z,100523.31
2022-10-23T02:26:18.828Z,100516.34
2022-10-23T02:28:55.301Z,100509.53
2022-10-23T02:31:24.657Z,100508.66
2022-10-23T02:33:52.709Z,100519.25
2022-10-23T02:36:21.021Z,100523.13
2022-10-23T02:38:48.850Z,100522.03
2022-10-23T02:41:24.127Z,100525.50
2022-10-23T02:44:04.508Z,100522.84
2022-10-23T02:46:43.552Z,100524.78
2022-10-23T02:49:18.039Z,100516.28
2022-10-23T02:51:56.425Z,100503.09
2022-10-23T02:54:41.166Z,100494.31
2022-10-23T02:57:20.998Z,100484.16
2022-10-23T02:59:58.468Z,100478.16
2022-10-23T03:02:33.604Z,100481.63
2022-10-23T03:05:03.215Z,100494.81
2022-10-23T03:07:31.156Z,100498.31
2022-10-23T03:10:07.509Z,100497.63
2022-10-23T03:12:35.717Z,100491.75
2022-10-23T03:15:07.816Z,100498.84
2022-10-23T03:17:35.685Z,100495.38
2022-10-23T03:20:04.407Z,100499.91
2022-10-23T03:22:32.442Z,100491.03
2022-10-23T03:25:01.342Z,100488.78
2022-10-23T03:27:31.241Z,100482.69
2022-10-23T03:30:01.402Z,100482.91
2022-10-23T03:32:32.411Z,100492.38
2022-10-23T03:35:01.252Z,100497.78
2022-10-23T03:37:29.103Z,100497.09
2022-10-23T03:39:56.860Z,100484.00
2022-10-23T03:42:24.642Z,100493.88
2022-10-23T03:44:52.409Z,100493.16
2022-10-23T03:47:21.063Z,100500.25
2022-10-23T03:49:50.333Z,100496.63
2022-10-23T03:52:18.240Z,100483.00
2022-10-23T03:54:46.082Z,100487.53
2022-10-23T03:57:13.934Z,100496.44
2022-10-23T03:59:41.610Z,100494.88
2022-10-23T04:02:09.590Z,100488.91
2022-10-23T04:04:37.360Z,100474.75
2022-10-23T04:07:08.782Z,100468.75
2022-10-23T04:09:36.944Z,100488.91
2022-10-23T04:12:05.375Z,100499.47
2022-10-23T04:14:35.272Z,100500.31
2022-10-23T04:17:04.080Z,100508.22
2022-10-23T04:19:32.285Z,100501.13
2022-10-23T04:22:02.479Z,100501.63
2022-10-23T04:24:31.590Z,100504.84
2022-10-23T04:26:59.498Z,100492.25
2022-10-23T04:29:32.320Z,100484.88
2022-10-23T04:32:00.185Z,100499.22
2022-10-23T04:34:29.216Z,100506.28
2022-10-23T04:36:59.273Z,100500.19
2022-10-23T04:39:27.197Z,100503.34
2022-10-23T04:41:56.562Z,100512.41
2022-10-23T04:44:26.331Z,100500.09
2022-10-23T04:46:54.073Z,100490.22
2022-10-23T04:49:22.157Z,100486.66
2022-10-23T04:52:09.913Z,100480.75
2022-10-23T04:54:53.614Z,100477.16
2022-10-23T04:57:28.660Z,100474.41
2022-10-23T05:00:02.119Z,100478.81
2022-10-23T05:02:36.563Z,100492.16
2022-10-23T05:05:05.135Z,100486.03
2022-10-23T05:07:44.462Z,100491.31
2022-10-23T05:10:24.925Z,100482.81
2022-10-23T05:13:14.953Z,100497.69
2022-10-23T05:18:15.109Z,100472.66
2022-10-23T05:20:46.558Z,100468.44
2022-10-23T05:23:17.717Z,100478.19
2022-10-23T05:25:54.583Z,100478.41
2022-10-23T05:28:49.821Z,100483.69
2022-10-23T05:31:20.668Z,100480.34
2022-10-23T05:33:51.870Z,100483.13
2022-10-23T05:36:23.035Z,100473.53
2022-10-23T05:38:56.684Z,100476.44
2022-10-23T05:41:24.633Z,100466.22
2022-10-23T05:43:54.122Z,100479.69
2022-10-23T05:46:42.678Z,100469.00
2022-10-23T05:49:19.596Z,100465.28
2022-10-23T05:51:56.613Z,100467.94
2022-10-23T05:54:31.235Z,100454.75
2022-10-23T05:57:25.528Z,100451.38
2022-10-23T05:59:55.345Z,100449.69
2022-10-23T06:02:41.673Z,100440.13
2022-10-23T06:05:26.505Z,100437.47
2022-10-23T06:08:19.858Z,100436.41
2022-10-23T06:10:50.723Z,100438.06
2022-10-23T06:13:19.561Z,100431.69
2022-10-23T06:15:49.490Z,100433.38
2022-10-23T06:18:23.077Z,100431.69
2022-10-23T06:20:56.438Z,100435.16
2022-10-23T06:23:28.245Z,100431.81
2022-10-23T06:26:17.015Z,100425.84
2022-10-23T06:29:02.389Z,100423.31
2022-10-23T06:31:32.290Z,100427.78
2022-10-23T06:34:01.106Z,100420.69
2022-10-23T06:36:30.861Z,100418.75
2022-10-23T06:39:11.976Z,100417.66
2022-10-23T06:42:08.393Z,100424.25
2022-10-23T06:44:51.486Z,100435.50
2022-10-23T06:47:36.977Z,100440.50
2022-10-23T06:50:25.088Z,100436.31
2022-10-23T06:52:54.229Z,100443.16
2022-10-23T06:55:23.052Z,100441.38
2022-10-23T06:57:50.948Z,100435.13
2022-10-23T07:00:21.420Z,100432.38
2022-10-23T07:02:54.641Z,100431.84
2022-10-23T07:05:23.698Z,100428.69
2022-10-23T07:07:51.744Z,100429.16
2022-10-23T07:10:26.032Z,100430.44
2022-10-23T07:13:01.099Z,100425.63
2022-10-23T07:15:40.994Z,100425.50
2022-10-23T07:18:15.186Z,100425.94
2022-10-23T07:21:12.609Z,100428.34
2022-10-23T07:23:41.349Z,100422.66
2022-10-23T07:26:10.960Z,100431.84
2022-10-23T07:28:39.101Z,100428.97
2022-10-23T07:31:06.955Z,100421.63
2022-10-23T07:33:59.008Z,100426.63
2022-10-23T07:36:26.877Z,100429.84
2022-10-23T07:38:55.058Z,100427.88
2022-10-23T07:41:22.873Z,100437.25
2022-10-23T07:43:50.788Z,100435.63
2022-10-23T07:46:18.740Z,100433.28
2022-10-23T07:48:47.041Z,100431.50
2022-10-23T07:51:18.567Z,100431.69
2022-10-23T07:53:50.185Z,100436.28
2022-10-23T07:56:56.333Z,100430.75
2022-10-23T07:59:44.318Z,100414.09
2022-10-23T08:02:15.582Z,100421.19
2022-10-23T08:04:44.944Z,100415.94
2022-10-23T08:07:27.697Z,100407.88
2022-10-23T08:09:57.991Z,100421.81
2022-10-23T08:12:27.014Z,100421.81
2022-10-23T08:14:56.210Z,100426.00
2022-10-23T08:17:28.325Z,100413.75
2022-10-23T08:20:06.284Z,100401.44
2022-10-23T08:22:41.798Z,100408.84
2022-10-23T08:25:12.059Z,100404.50
2022-10-23T08:27:40.015Z,100413.53
2022-10-23T08:30:09.038Z,100416.84
2022-10-23T08:32:37.121Z,100418.50
2022-10-23T08:35:05.470Z,100416.50
2022-10-23T08:37:34.425Z,100416.38
2022-10-23T08:40:04.783Z,100410.19
2022-10-23T08:42:59.997Z,100400.38
2022-10-23T08:45:33.623Z,100406.03
2022-10-23T08:48:19.657Z,100403.16
2022-10-23T08:51:12.475Z,100388.56
2022-10-23T08:53:47.764Z,100384.88
2022-10-23T08:56:23.512Z,100387.59
2022-10-23T08:58:56.705Z,100386.53
2022-10-23T09:01:37.082Z,100369.03
2022-10-23T09:04:06.260Z,100357.09
2022-10-23T09:06:38.854Z,100357.00
2022-10-23T09:09:21.784Z,100371.91
2022-10-23T09:12:00.659Z,100362.03
2022-10-23T09:14:46.986Z,100373.06
2022-10-23T09:17:24.119Z,100369.31
2022-10-23T09:19:56.980Z,100374.53
2022-10-23T09:22:24.859Z,100357.81
2022-10-23T09:24:53.892Z,100354.19
2022-10-23T09:27:23.233Z,100360.69
2022-10-23T09:29:53.290Z,100367.91
2022-10-23T09:32:22.128Z,100366.75
2022-10-23T09:34:54.376Z,100364.75
2022-10-23T09:37:25.317Z,100361.75
2022-10-23T09:40:09.325Z,100354.47
2022-10-23T09:42:38.653Z,100344.50
2022-10-23T09:45:23.638Z,100333.38
2022-10-23T09:48:05.948Z,100334.91
2022-10-23T09:50:34.067Z,100340.41
2022-10-23T09:53:02.588Z,100334.66
2022-10-23T09:55:30.665Z,100334.69
2022-10-23T09:57:59.880Z,100347.84
2022-10-23T10:00:28.661Z,100345.69
2022-10-23T10:02:59.735Z,100343.69
2022-10-23T10:05:39.301Z,100337.09
2022-10-23T10:08:28.889Z,100325.09
2022-10-23T10:11:01.269Z,100329.25
2022-10-23T10:14:04.502Z,100345.44
2022-10-23T10:16:45.342Z,100348.59
2022-10-23T10:19:26.761Z,100342.91
2022-10-23T10:22:04.775Z,100350.91
2022-10-23T10:24:41.693Z,100340.75
2022-10-23T10:27:20.091Z,100329.78
2022-10-23T10:30:04.609Z,100311.97
2022-10-23T10:32:41.208Z,100318.78
2022-10-23T10:35:27.109Z,100320.25
2022-10-23T10:38:44.292Z,100303.53
2022-10-23T10:41:39.569Z,100299.69
2022-10-23T10:44:43.511Z,100293.88
2022-10-23T10:47:21.378Z,100283.41
2022-10-23T10:50:01.467Z,100291.22
2022-10-23T10:53:01.851Z,100295.88
2022-10-23T10:55:35.701Z,100296.38
2022-10-23T10:58:06.804Z,100289.88
2022-10-23T11:00:35.471Z,100285.03
2022-10-23T11:03:19.820Z,100270.19
2022-10-23T11:05:50.463Z,100271.31
2022-10-23T11:08:24.790Z,100269.69
2022-10-23T11:10:58.911Z,100269.69
2022-10-23T11:13:35.372Z,100282.00
2022-10-23T11:16:09.853Z,100268.22
2022-10-23T11:18:42.908Z,100260.75
2022-10-23T11:21:27.103Z,100258.78
2022-10-23T11:24:21.855Z,100239.09
2022-10-23T11:27:03.506Z,100232.28
2022-10-23T11:29:57.167Z,100229.38
2022-10-23T11:32:37.787Z,100226.19
2022-10-23T11:35:21.745Z,100225.59
2022-10-23T11:38:00.083Z,100228.34
2022-10-23T11:40:28.516Z,100217.94
2022-10-23T11:42:56.335Z,100225.56
2022-10-23T11:45:33.507Z,100218.50
2022-10-23T11:48:03.184Z,100214.59
2022-10-23T11:50:34.990Z,100200.72
2022-10-23T11:53:14.668Z,100196.59
2022-10-23T11:55:59.197Z,100211.44
2022-10-23T11:58:31.902Z,100216.50
2022-10-23T12:01:04.823Z,100208.94
2022-10-23T12:03:49.669Z,100211.84
2022-10-23T12:06:26.927Z,100200.16
2022-10-23T12:08:58.328Z,100188.47
2022-10-23T12:11:42.778Z,100183.88
2022-10-23T12:14:27.769Z,100178.09
2022-10-23T12:16:55.764Z,100178.28
2022-10-23T12:19:26.162Z,100173.19
2022-10-23T12:21:58.393Z,100181.22
2022-10-23T12:24:39.782Z,100194.75
2022-10-23T12:27:17.631Z,100180.28
2022-10-23T12:30:01.316Z,100164.03
2022-10-23T12:32:44.684Z,100159.41
2022-10-23T12:35:48.925Z,100150.72
2022-10-23T12:38:21.147Z,100136.25
2022-10-23T12:40:53.189Z,100126.50
2022-10-23T12:43:29.244Z,100113.31
2022-10-23T12:46:01.860Z,100101.63
2022-10-23T12:48:29.689Z,100098.34
2022-10-23T12:50:57.658Z,100120.88
2022-10-23T12:53:29.223Z,100118.00
2022-10-23T12:56:02.221Z,100109.22
2022-10-23T12:58:32.037Z,100104.69
2022-10-23T13:01:05.035Z,100102.00
2022-10-23T13:03:36.716Z,100100.66
2022-10-23T13:06:05.605Z,100085.09
2022-10-23T13:08:41.980Z,100089.94
2022-10-23T13:11:29.434Z,100094.88
2022-10-23T13:14:00.514Z,100087.72
2022-10-23T13:16:28.274Z,100081.78
2022-10-23T13:18:56.269Z,100078.44
2022-10-23T13:21:26.064Z,100063.59
2022-10-23T13:23:56.364Z,100056.56
2022-10-23T13:26:33.103Z,100053.28
2022-10-23T13:29:07.412Z,100056.34
2022-10-23T13:31:37.870Z,100061.31
2022-10-23T13:34:15.351Z,100065.84
2022-10-23T13:36:53.610Z,100059.59
2022-10-23T13:39:26.465Z,100046.19
2022-10-23T13:41:54.568Z,100044.31
2022-10-23T13:44:24.882Z,100045.78
2022-10-23T13:46:53.046Z,100043.69
2022-10-23T13:49:21.829Z,100036.50
2022-10-23T13:51:53.058Z,100034.19
2022-10-23T13:54:23.330Z,100034.06
2022-10-23T13:56:53.156Z,100027.00
2022-10-23T13:59:21.669Z,100021.22
2022-10-23T14:01:50.849Z,100013.41
2022-10-23T14:04:19.712Z,100008.00
2022-10-23T14:06:49.898Z,100016.22
2022-10-23T14:09:19.488Z,100012.28
2022-10-23T14:11:47.762Z,100012.66
2022-10-23T14:14:17.038Z,100012.38
2022-10-23T14:16:47.102Z,100014.00
2022-10-23T14:19:14.841Z,99995.25
2022-10-23T14:21:42.741Z,100002.22
2022-10-23T14:24:10.517Z,99999.72
2022-10-23T14:26:38.419Z,100001.53
2022-10-23T14:29:09.891Z,100005.84
2022-10-23T14:31:43.158Z,100000.06
2022-10-23T14:34:10.995Z,100002.75
2022-10-23T14:36:49.890Z,100005.97
2022-10-23T14:39:18.114Z,99997.06
2022-10-23T14:41:46.101Z,99996.06
2022-10-23T14:44:14.150Z,99991.09
2022-10-23T14:46:43.314Z,99989.38
2022-10-23T14:49:11.254Z,99975.38
2022-10-23T14:51:40.048Z,99972.00
2022-10-23T14:54:12.980Z,99973.63
2022-10-23T14:56:41.096Z,99967.44
2022-10-23T14:59:12.432Z,99970.66
2022-10-23T15:01:45.202Z,99953.19
2022-10-23T15:04:15.571Z,99962.19
2022-10-23T15:06:44.999Z,99963.34
2022-10-23T15:09:13.036Z,99953.63
2022-10-23T15:11:40.931Z,99955.59
2022-10-23T15:14:09.061Z,99952.06
2022-10-23T15:16:41.115Z,99949.16
2022-10-23T15:19:12.202Z,99942.28
2022-10-23T15:21:44.684Z,99948.81
2022-10-23T15:24:12.599Z,99939.38
2022-10-23T15:26:42.930Z,99927.09
2022-10-23T15:29:11.326Z,99929.69
2022-10-23T15:31:48.701Z,99919.41
2022-10-23T15:34:19.532Z,99920.59
2022-10-23T15:36:49.759Z,99923.63
2022-10-23T15:39:19.674Z,99917.41
2022-10-23T15:41:52.771Z,99916.75
2022-10-23T15:44:22.998Z,99915.47
2022-10-23T15:46:51.587Z,99910.34
2022-10-23T15:49:20.570Z,99920.19
2022-10-23T15:51:49.852Z,99915.41
2022-10-23T15:54:19.674Z,99913.94
2022-10-23T15:56:49.184Z,99908.72
2022-10-23T15:59:17.977Z,99907.06
2022-10-23T16:01:46.853Z,99904.09
2022-10-23T16:04:15.959Z,99893.44
2022-10-23T16:06:44.169Z,99895.66
2022-10-23T16:09:13.980Z,99880.19
2022-10-23T16:11:43.634Z,99880.19
2022-10-23T16:14:14.160Z,99879.34
2022-10-23T16:16:42.134Z,99872.56
2022-10-23T16:19:12.147Z,99870.25
2022-10-23T16:21:40.327Z,99864.94
2022-10-23T16:24:09.543Z,99871.47
2022-10-23T16:26:39.172Z,99878.66
2022-10-23T16:29:08.844Z,99871.84
2022-10-23T16:31:36.827Z,99865.03
2022-10-23T16:34:05.985Z,99858.91
2022-10-23T16:36:34.822Z,99861.00
2022-10-23T16:39:10.041Z,99857.88
2022-10-23T16:41:58.501Z,99867.25
2022-10-23T16:44:35.002Z,99862.09
2022-10-23T16:47:06.030Z,99860.44
2022-10-23T16:49:34.424Z,99869.47
2022-10-23T16:52:02.774Z,99870.75
2022-10-23T16:54:33.430Z,99871.22
2022-10-23T16:57:02.968Z,99865.13
2022-10-23T16:59:33.749Z,99851.78
2022-10-23T17:02:01.688Z,99848.34
2022-10-23T17:04:29.802Z,99851.03
2022-10-23T17:06:57.659Z,99858.22
2022-10-23T17:09:27.459Z,99852.44
2022-10-23T17:11:55.266Z,99836.97
2022-10-23T17:14:28.826Z,99827.34
2022-10-23T17:16:58.052Z,99833.88
2022-10-23T17:22:17.169Z,99832.94
2022-10-23T17:24:47.608Z,99837.63
2022-10-23T17:27:18.402Z,99824.03
2022-10-23T17:29:49.928Z,99821.91
2022-10-23T17:32:18.100Z,99820.59
2022-10-23T17:34:46.458Z,99812.78
2022-10-23T17:37:14.480Z,99816.84
2022-10-23T17:39:42.569Z,99803.06
2022-10-23T17:42:10.612Z,99790.91
2022-10-23T17:44:38.361Z,99800.94
2022-10-23T17:47:07.651Z,99814.28
2022-10-23T17:49:35.521Z,99823.28
2022-10-23T17:52:03.518Z,99836.44
2022-10-23T17:54:31.299Z,99855.28
2022-10-23T17:56:59.271Z,99918.63
2022-10-23T17:59:27.067Z,99968.19
2022-10-23T18:01:55.866Z,99975.22
2022-10-23T18:04:25.984Z,99982.78
2022-10-23T18:06:54.604Z,100021.69
2022-10-23T18:09:23.964Z,100042.00
2022-10-23T18:11:52.697Z,100053.09
2022-10-23T18:14:25.141Z,100065.47
2022-10-23T18:16:55.418Z,100064.31
2022-10-23T18:19:23.230Z,100086.66
2022-10-23T18:21:52.680Z,100102.53
2022-10-23T18:24:20.688Z,100092.41
2022-10-23T18:26:49.208Z,100106.78
2022-10-23T18:29:18.292Z,100109.13
2022-10-23T18:31:47.972Z,100103.66
2022-10-23T18:34:18.027Z,100099.88
2022-10-23T18:36:45.967Z,100084.75
2022-10-23T18:39:17.293Z,100083.88
2022-10-23T18:41:46.425Z,100078.72
2022-10-23T18:44:16.739Z,100068.06
2022-10-23T18:46:44.806Z,100057.78
2022-10-23T18:49:15.713Z,100061.78
2022-10-23T18:51:43.776Z,100061.31
2022-10-23T18:54:14.052Z,100055.97
2022-10-23T18:56:43.912Z,100053.66
2022-10-23T18:59:15.946Z,100045.84
2022-10-23T19:01:44.399Z,100049.53
2022-10-23T19:04:15.560Z,100052.34
2022-10-23T19:06:43.692Z,100070.00
2022-10-23T19:09:13.774Z,100066.34
2022-10-23T19:11:44.185Z,100051.53
2022-10-23T19:14:12.305Z,100055.88
2022-10-23T19:16:45.413Z,100057.53
2022-10-23T19:19:17.598Z,100056.91
2022-10-23T19:21:46.616Z,100058.22
2022-10-23T19:24:17.396Z,100056.44
2022-10-23T19:26:46.945Z,100047.28
2022-10-23T19:29:19.483Z,100051.31
2022-10-23T19:31:49.305Z,100055.16
2022-10-23T19:34:19.758Z,100049.97
2022-10-23T19:36:47.846Z,100032.72
2022-10-23T19:39:16.091Z,100039.53
2022-10-23T19:41:44.690Z,100030.41
2022-10-23T19:44:14.832Z,100021.44
2022-10-23T19:46:43.256Z,100041.91
2022-10-23T19:49:13.572Z,100032.78
2022-10-23T19:51:49.666Z,100035.44
2022-10-23T19:54:19.424Z,100039.09
2022-10-23T19:56:50.003Z,100027.97
2022-10-23T19:59:19.855Z,100046.41
2022-10-23T20:01:49.350Z,100043.25
2022-10-23T20:04:18.280Z,100044.78
2022-10-23T20:06:46.503Z,100032.41
2022-10-23T20:09:14.548Z,100034.78
2022-10-23T20:11:43.443Z,100044.25
2022-10-23T20:14:11.573Z,100049.38
2022-10-23T20:16:41.415Z,100051.09
2022-10-23T20:19:11.796Z,100050.22
2022-10-23T20:21:43.997Z,100040.44
2022-10-23T20:24:13.570Z,100057.56
2022-10-23T20:26:42.314Z,100061.03
2022-10-23T20:29:10.786Z,100061.88
2022-10-23T20:31:40.490Z,100068.34
2022-10-23T20:34:09.168Z,100052.56
2022-10-23T20:36:43.780Z,100053.69
2022-10-23T20:39:16.785Z,100058.34
2022-10-23T20:41:45.063Z,100050.03
2022-10-23T20:46:47.100Z,100070.00
2022-10-23T20:49:15.734Z,100079.78
2022-10-23T20:51:43.894Z,100086.97
2022-10-23T20:54:11.989Z,100072.81
2022-10-23T20:56:40.854Z,100061.19
2022-10-23T20:59:12.218Z,100079.63
2022-10-23T21:01:41.122Z,100068.34
2022-10-23T21:04:12.594Z,100060.69
2022-10-23T21:06:51.892Z,100055.56
2022-10-23T21:09:30.398Z,100058.03
2022-10-23T21:11:58.231Z,100058.88
2022-10-23T21:14:26.153Z,100059.88
2022-10-23T21:16:54.016Z,100059.19
2022-10-23T21:19:23.305Z,100053.38
2022-10-23T21:21:53.735Z,100057.22
2022-10-23T21:24:21.726Z,100049.41
2022-10-23T21:26:49.608Z,100055.72
2022-10-23T21:29:18.994Z,100058.53
2022-10-23T21:31:52.870Z,100068.66
2022-10-23T21:34:20.862Z,100071.69
2022-10-23T21:39:38.090Z,100080.81
2022-10-23T21:42:06.062Z,100075.81
2022-10-23T21:44:34.027Z,100073.66
2022-10-23T21:47:01.837Z,100074.66
2022-10-23T21:49:30.183Z,100076.50
2022-10-23T21:51:59.425Z,100069.34
2022-10-23T21:54:27.495Z,100071.47
2022-10-23T21:56:55.428Z,100074.28
2022-10-23T21:59:27.652Z,100080.81
2022-10-23T22:01:58.195Z,100083.91
2022-10-23T22:04:26.125Z,100083.59
2022-10-23T22:06:54.151Z,100090.06
2022-10-23T22:09:24.227Z,100095.53
2022-10-23T22:11:53.105Z,100099.19
2022-10-23T22:14:21.264Z,100097.69
2022-10-23T22:16:49.965Z,100097.03
2022-10-23T22:19:19.581Z,100090.22
2022-10-23T22:21:48.718Z,100090.38
2022-10-23T22:24:17.772Z,100093.88
2022-10-23T22:26:52.353Z,100094.88
2022-10-23T22:29:23.002Z,100102.97
2022-10-23T22:31:51.866Z,100103.31
2022-10-23T22:34:28.718Z,100101.81
2022-10-23T22:37:11.135Z,100104.78
2022-10-23T22:39:40.028Z,100107.75
2022-10-23T22:42:09.575Z,100106.25
2022-10-23T22:44:37.532Z,100103.75
2022-10-23T22:47:06.168Z,100104.75
2022-10-23T22:49:34.231Z,100099.78
2022-10-23T22:52:02.087Z,100100.09
2022-10-23T22:54:31.206Z,100090.47
2022-10-23T22:56:59.085Z,100097.09
2022-10-23T22:59:28.336Z,100096.38
2022-10-23T23:01:56.381Z,100096.72
2022-10-23T23:04:42.771Z,100100.34
2022-10-23T23:07:12.570Z,100105.81
2022-10-23T23:09:42.800Z,100110.31
2022-10-23T23:12:13.493Z,100105.00
2022-10-23T23:14:43.504Z,100118.72
2022-10-23T23:17:12.375Z,100107.44
2022-10-23T23:19:40.520Z,100108.59
2022-10-23T23:22:08.557Z,100103.63
2022-10-23T23:24:36.499Z,100104.91
2022-10-23T23:27:04.478Z,100105.25
2022-10-23T23:29:32.639Z,100106.53
2022-10-23T23:32:01.935Z,100106.19
2022-10-23T23:34:30.200Z,100112.78
2022-10-23T23:36:58.138Z,100108.78
2022-10-23T23:39:28.274Z,100118.72
2022-10-23T23:41:56.167Z,100123.50
2022-10-23T23:44:24.054Z,100118.34
2022-10-23T23:46:52.024Z,100115.19
2022-10-23T23:49:21.229Z,100121.66
2022-10-23T23:51:49.563Z,100106.69
2022-10-23T23:54:17.524Z,100112.19
2022-10-23T23:56:45.547Z,100101.88
2022-10-23T23:59:15.547Z,100087.44
